createdAt,value
2023-03-26T00:01:12.438Z,99679.75
2023-03-26T00:03:40.295Z,99685.44
2023-03-26T00:06:10.059Z,99686.66
2023-03-26T00:08:38.256Z,99694.09
2023-03-26T00:11:06.109Z,99696.28
2023-03-26T00:13:33.231Z,99692.88
2023-03-26T00:16:00.184Z,99695.56
2023-03-26T00:18:26.833Z,99698.28
2023-03-26T00:20:54.488Z,99702.63
2023-03-26T00:23:20.859Z,99703.44
2023-03-26T00:25:49.155Z,99709.63
2023-03-26T00:28:15.858Z,99707.63
2023-03-26T00:30:42.317Z,99711.78
2023-03-26T00:33:09.063Z,99720.63
2023-03-26T00:35:36.189Z,99729.16
2023-03-26T00:38:04.362Z,99716.88
2023-03-26T00:40:30.785Z,99726.06
2023-03-26T00:42:57.247Z,99717.84
2023-03-26T00:45:23.919Z,99724.84
2023-03-26T00:47:50.403Z,99724.00
2023-03-26T00:50:16.784Z,99726.28
2023-03-26T00:52:43.565Z,99723.38
2023-03-26T00:55:11.957Z,99730.81
2023-03-26T00:57:38.614Z,99725.16
2023-03-26T01:00:07.774Z,99717.81
2023-03-26T01:02:34.208Z,99734.66
2023-03-26T01:05:00.674Z,99736.22
2023-03-26T01:07:27.126Z,99744.66
2023-03-26T01:09:54.937Z,99742.16
2023-03-26T01:12:25.640Z,99746.66
2023-03-26T01:14:54.500Z,99740.78
2023-03-26T01:17:22.770Z,99739.53
2023-03-26T01:19:53.234Z,99740.22
2023-03-26T01:22:21.568Z,99742.19
2023-03-26T01:24:50.159Z,99737.00
2023-03-26T01:27:25.514Z,99741.69
2023-03-26T01:29:54.670Z,99743.78
2023-03-26T01:32:40.350Z,99745.63
2023-03-26T01:35:20.812Z,99746.53
2023-03-26T01:38:00.915Z,99743.28
2023-03-26T01:40:34.921Z,99748.81
2023-03-26T01:43:10.606Z,99735.97
2023-03-26T01:45:41.849Z,99743.97
2023-03-26T01:48:08.609Z,99740.03
2023-03-26T01:50:35.144Z,99737.13
2023-03-26T01:53:01.701Z,99743.72
2023-03-26T01:55:38.150Z,99736.22
2023-03-26T01:58:16.620Z,99740.50
2023-03-26T02:00:51.126Z,99735.34
2023-03-26T02:03:26.502Z,99746.47
2023-03-26T02:05:57.214Z,99739.75
2023-03-26T02:08:29.374Z,99731.03
2023-03-26T02:10:59.454Z,99739.66
2023-03-26T02:13:26.155Z,99737.69
2023-03-26T02:15:58.129Z,99736.44
2023-03-26T02:18:25.165Z,99736.69
2023-03-26T02:20:52.207Z,99739.28
2023-03-26T02:23:19.593Z,99735.22
2023-03-26T02:25:46.250Z,99732.03
2023-03-26T02:28:13.934Z,99735.44
2023-03-26T02:30:40.285Z,99737.38
2023-03-26T02:33:06.675Z,99733.41
2023-03-26T02:35:33.166Z,99729.38
2023-03-26T02:37:59.611Z,99735.72
2023-03-26T02:40:26.056Z,99737.31
2023-03-26T02:42:52.424Z,99738.09
2023-03-26T02:45:20.520Z,99736.56
2023-03-26T02:47:46.885Z,99739.19
2023-03-26T02:50:13.278Z,99743.09
2023-03-26T02:52:39.627Z,99737.44
2023-03-26T02:55:06.321Z,99737.81
2023-03-26T02:57:32.680Z,99736.75
2023-03-26T02:59:59.038Z,99740.22
2023-03-26T03:02:26.771Z,99732.28
2023-03-26T03:04:53.175Z,99732.22
2023-03-26T03:07:19.537Z,99727.78
2023-03-26T03:09:45.903Z,99731.41
2023-03-26T03:12:12.241Z,99722.00
2023-03-26T03:14:38.592Z,99723.44
2023-03-26T03:17:05.031Z,99715.66
2023-03-26T03:19:32.731Z,99708.31
2023-03-26T03:21:59.101Z,99699.72
2023-03-26T03:24:25.484Z,99701.91
2023-03-26T03:26:51.839Z,99705.56
2023-03-26T03:29:18.206Z,99705.06
2023-03-26T03:31:44.570Z,99707.25
2023-03-26T03:34:10.999Z,99702.41
2023-03-26T03:36:38.754Z,99692.75
2023-03-26T03:39:05.231Z,99701.78
2023-03-26T03:41:31.700Z,99703.78
2023-03-26T03:43:58.061Z,99696.84
2023-03-26T03:46:24.560Z,99698.25
2023-03-26T03:48:50.944Z,99693.38
2023-03-26T03:51:17.324Z,99696.88
2023-03-26T03:53:45.034Z,99705.00
2023-03-26T03:56:11.538Z,99701.63
2023-03-26T03:58:37.899Z,99700.69
2023-03-26T04:01:04.569Z,99700.19
2023-03-26T04:03:33.585Z,99705.91
2023-03-26T04:06:01.414Z,99712.22
2023-03-26T04:08:27.840Z,99706.44
2023-03-26T04:10:55.556Z,99711.94
2023-03-26T04:13:21.908Z,99710.00
2023-03-26T04:15:48.412Z,99711.88
2023-03-26T04:18:14.969Z,99709.72
2023-03-26T04:20:43.805Z,99712.34
2023-03-26T04:23:10.193Z,99715.25
2023-03-26T04:25:36.837Z,99704.59
2023-03-26T04:28:06.890Z,99714.50
2023-03-26T04:30:34.581Z,99712.50
2023-03-26T04:33:01.539Z,99720.84
2023-03-26T04:35:28.072Z,99712.63
2023-03-26T04:37:54.532Z,99717.38
2023-03-26T04:40:21.944Z,99712.25
2023-03-26T04:42:48.326Z,99711.38
2023-03-26T04:45:18.400Z,99701.03
2023-03-26T04:47:44.867Z,99712.72
2023-03-26T04:50:11.949Z,99702.53
2023-03-26T04:52:38.598Z,99703.72
2023-03-26T04:55:07.502Z,99706.25
2023-03-26T04:57:39.172Z,99696.47
2023-03-26T05:00:07.327Z,99699.94
2023-03-26T05:02:35.063Z,99698.16
2023-03-26T05:05:01.470Z,99700.97
2023-03-26T05:07:27.814Z,99700.25
2023-03-26T05:09:54.190Z,99698.59
2023-03-26T05:12:20.569Z,99697.97
2023-03-26T05:14:46.899Z,99702.66
2023-03-26T05:17:14.936Z,99689.47
2023-03-26T05:19:42.656Z,99693.25
2023-03-26T05:22:09.021Z,99699.84
2023-03-26T05:24:35.427Z,99692.38
2023-03-26T05:27:01.818Z,99689.44
2023-03-26T05:29:28.190Z,99690.09
2023-03-26T05:31:54.534Z,99691.09
2023-03-26T05:34:21.399Z,99689.56
2023-03-26T05:36:49.089Z,99694.72
2023-03-26T05:39:15.451Z,99687.59
2023-03-26T05:41:41.838Z,99692.00
2023-03-26T05:44:08.240Z,99690.84
2023-03-26T05:46:34.763Z,99694.72
2023-03-26T05:49:01.178Z,99698.09
2023-03-26T05:51:27.541Z,99699.72
2023-03-26T05:53:55.242Z,99699.88
2023-03-26T05:56:21.595Z,99692.63
2023-03-26T05:58:47.964Z,99692.47
2023-03-26T06:01:14.454Z,99687.38
2023-03-26T06:03:40.913Z,99695.50
2023-03-26T06:06:08.775Z,99684.88
2023-03-26T06:08:35.167Z,99681.41
2023-03-26T06:11:05.145Z,99686.75
2023-03-26T06:13:31.544Z,99680.66
2023-03-26T06:15:57.942Z,99676.25
2023-03-26T06:18:24.780Z,99681.50
2023-03-26T06:20:51.416Z,99673.56
2023-03-26T06:23:18.219Z,99669.00
2023-03-26T06:25:45.100Z,99678.34
2023-03-26T06:28:12.909Z,99672.41
2023-03-26T06:30:39.335Z,99671.66
2023-03-26T06:33:05.889Z,99663.22
2023-03-26T06:35:32.633Z,99670.34
2023-03-26T06:37:59.088Z,99665.75
2023-03-26T06:40:25.986Z,99659.13
2023-03-26T06:43:08.699Z,99662.69
2023-03-26T06:45:38.301Z,99665.44
2023-03-26T06:48:05.322Z,99663.31
2023-03-26T06:50:31.802Z,99654.00
2023-03-26T06:52:58.780Z,99664.47
2023-03-26T06:55:25.773Z,99663.78
2023-03-26T06:57:53.455Z,99661.22
2023-03-26T07:00:20.599Z,99662.06
2023-03-26T07:02:48.329Z,99664.69
2023-03-26T07:05:14.868Z,99663.19
2023-03-26T07:07:46.122Z,99663.19
2023-03-26T07:10:13.108Z,99658.97
2023-03-26T07:12:39.476Z,99656.59
2023-03-26T07:15:07.200Z,99653.59
2023-03-26T07:17:33.627Z,99658.47
2023-03-26T07:20:01.366Z,99654.56
2023-03-26T07:22:28.396Z,99650.97
2023-03-26T07:24:55.465Z,99644.81
2023-03-26T07:27:34.929Z,99640.56
2023-03-26T07:30:06.184Z,99635.41
2023-03-26T07:32:40.114Z,99634.66
2023-03-26T07:35:16.440Z,99639.59
2023-03-26T07:37:52.865Z,99637.16
2023-03-26T07:40:36.171Z,99639.00
2023-03-26T07:43:12.476Z,99632.56
2023-03-26T07:45:40.737Z,99635.16
2023-03-26T07:48:15.250Z,99621.13
2023-03-26T07:50:44.025Z,99624.00
2023-03-26T07:53:10.968Z,99621.91
2023-03-26T07:55:45.813Z,99621.78
2023-03-26T07:58:28.432Z,99616.19
2023-03-26T08:00:59.327Z,99611.69
2023-03-26T08:03:36.160Z,99620.06
2023-03-26T08:06:11.918Z,99616.28
2023-03-26T08:08:45.095Z,99616.22
2023-03-26T08:11:24.036Z,99616.09
2023-03-26T08:14:03.720Z,99613.47
2023-03-26T08:16:36.360Z,99606.03
2023-03-26T08:19:11.127Z,99607.59
2023-03-26T08:21:44.690Z,99607.00
2023-03-26T08:24:19.937Z,99601.97
2023-03-26T08:26:58.416Z,99608.06
2023-03-26T08:29:31.730Z,99606.97
2023-03-26T08:31:59.291Z,99607.47
2023-03-26T08:34:25.790Z,99608.38
2023-03-26T08:36:53.478Z,99614.28
2023-03-26T08:39:20.221Z,99620.19
2023-03-26T08:42:07.302Z,99616.44
2023-03-26T08:44:57.790Z,99612.28
2023-03-26T08:47:51.489Z,99608.38
2023-03-26T08:50:45.861Z,99607.06
2023-03-26T08:53:30.027Z,99612.59
2023-03-26T08:56:01.070Z,99608.97
2023-03-26T08:59:05.342Z,99608.78
2023-03-26T09:02:02.451Z,99609.94
2023-03-26T09:05:04.525Z,99617.56
2023-03-26T09:08:03.160Z,99610.25
2023-03-26T09:10:49.866Z,99615.09
2023-03-26T09:13:45.804Z,99606.09
2023-03-26T09:16:38.620Z,99603.88
2023-03-26T09:19:35.038Z,99607.59
2023-03-26T09:22:33.181Z,99604.28
2023-03-26T09:25:24.909Z,99609.78
2023-03-26T09:28:20.880Z,99603.47
2023-03-26T09:31:10.817Z,99596.91
2023-03-26T09:34:09.189Z,99610.00
2023-03-26T09:36:53.821Z,99599.75
2023-03-26T09:39:34.062Z,99601.34
2023-03-26T09:42:09.476Z,99596.81
2023-03-26T09:45:13.479Z,99599.19
2023-03-26T09:47:54.546Z,99599.94
2023-03-26T09:50:29.943Z,99598.78
2023-03-26T09:53:08.647Z,99600.50
2023-03-26T09:55:54.057Z,99601.44
2023-03-26T09:58:41.810Z,99602.72
2023-03-26T10:01:18.487Z,99600.72
2023-03-26T10:04:00.506Z,99594.50
2023-03-26T10:06:36.432Z,99591.34
2023-03-26T10:09:17.676Z,99593.44
2023-03-26T10:12:02.126Z,99585.78
2023-03-26T10:14:35.419Z,99584.75
2023-03-26T10:17:19.872Z,99580.97
2023-03-26T10:19:57.794Z,99582.53
2023-03-26T10:22:40.100Z,99582.53
2023-03-26T10:25:27.798Z,99588.50
2023-03-26T10:28:05.547Z,99587.75
2023-03-26T10:30:44.703Z,99578.72
2023-03-26T10:33:24.002Z,99576.97
2023-03-26T10:36:02.126Z,99578.75
2023-03-26T10:38:39.335Z,99575.25
2023-03-26T10:41:12.900Z,99574.81
2023-03-26T10:44:09.332Z,99578.28
2023-03-26T10:47:03.013Z,99572.47
2023-03-26T10:49:59.802Z,99578.56
2023-03-26T10:52:34.312Z,99573.66
2023-03-26T10:55:10.070Z,99569.25
2023-03-26T10:57:43.915Z,99557.00
2023-03-26T11:00:17.301Z,99554.94
2023-03-26T11:02:54.917Z,99564.84
2023-03-26T11:05:43.483Z,99556.47
2023-03-26T11:08:14.946Z,99561.91
2023-03-26T11:10:49.637Z,99552.88
2023-03-26T11:13:24.390Z,99564.16
2023-03-26T11:15:56.665Z,99558.72
2023-03-26T11:18:28.783Z,99551.19
2023-03-26T11:21:19.316Z,99557.78
2023-03-26T11:24:05.482Z,99553.41
2023-03-26T11:26:42.810Z,99541.72
2023-03-26T11:29:32.803Z,99539.00
2023-03-26T11:32:05.831Z,99544.84
2023-03-26T11:34:35.850Z,99538.84
2023-03-26T11:37:06.520Z,99547.69
2023-03-26T11:39:41.417Z,99548.38
2023-03-26T11:42:10.907Z,99550.91
2023-03-26T11:44:39.864Z,99553.22
2023-03-26T11:47:10.517Z,99548.38
2023-03-26T11:49:38.250Z,99544.75
2023-03-26T11:52:05.951Z,99549.44
2023-03-26T11:54:32.531Z,99538.25
2023-03-26T11:57:04.389Z,99542.47
2023-03-26T11:59:49.028Z,99539.41
2023-03-26T12:02:27.662Z,99536.31
2023-03-26T12:05:10.528Z,99527.78
2023-03-26T12:07:45.340Z,99522.84
2023-03-26T12:10:22.690Z,99537.47
2023-03-26T12:12:49.123Z,99532.94
2023-03-26T12:15:17.339Z,99529.84
2023-03-26T12:17:43.805Z,99522.69
2023-03-26T12:20:31.692Z,99531.91
2023-03-26T12:23:01.314Z,99530.28
2023-03-26T12:25:30.232Z,99532.44
2023-03-26T12:27:59.611Z,99526.38
2023-03-26T12:30:27.493Z,99524.50
2023-03-26T12:32:57.860Z,99527.88
2023-03-26T12:35:26.724Z,99519.34
2023-03-26T12:37:54.510Z,99524.00
2023-03-26T12:40:30.977Z,99522.28
2023-03-26T12:44:56.099Z,99523.38
2023-03-26T12:47:56.432Z,99520.97
2023-03-26T12:48:37.281Z,99525.97
2023-03-26T12:51:15.114Z,99527.69
2023-03-26T12:53:58.168Z,99527.75
2023-03-26T12:56:30.471Z,99525.31
2023-03-26T12:59:21.341Z,99526.09
2023-03-26T13:01:55.773Z,99522.31
2023-03-26T13:04:37.579Z,99523.72
2023-03-26T13:07:16.548Z,99532.44
2023-03-26T13:09:56.847Z,99530.72
2023-03-26T13:12:35.134Z,99519.41
2023-03-26T13:15:16.674Z,99517.47
2023-03-26T13:17:53.730Z,99518.50
2023-03-26T13:20:26.865Z,99519.63
2023-03-26T13:23:02.344Z,99521.47
2023-03-26T13:25:38.668Z,99518.22
2023-03-26T13:28:18.742Z,99513.84
2023-03-26T13:30:51.756Z,99513.63
2023-03-26T13:33:30.816Z,99508.78
2023-03-26T13:36:21.822Z,99512.09
2023-03-26T13:39:12.131Z,99503.31
2023-03-26T13:41:52.506Z,99506.38
2023-03-26T13:44:32.204Z,99511.84
2023-03-26T13:47:04.184Z,99508.78
2023-03-26T13:49:37.274Z,99508.34
2023-03-26T13:52:08.007Z,99512.88
2023-03-26T13:54:40.634Z,99508.00
2023-03-26T13:57:11.746Z,99508.59
2023-03-26T13:59:47.095Z,99508.75
2023-03-26T14:02:23.015Z,99507.28
2023-03-26T14:04:54.015Z,99507.63
2023-03-26T14:07:25.209Z,99514.28
2023-03-26T14:09:54.376Z,99511.44
2023-03-26T14:12:40.849Z,99510.81
2023-03-26T14:15:16.001Z,99506.38
2023-03-26T14:17:48.345Z,99510.16
2023-03-26T14:20:35.009Z,99506.84
2023-03-26T14:23:22.216Z,99512.03
2023-03-26T14:26:08.345Z,99507.25
2023-03-26T14:28:58.212Z,99510.09
2023-03-26T14:31:29.596Z,99511.22
2023-03-26T14:34:11.929Z,99513.94
2023-03-26T14:36:58.262Z,99516.13
2023-03-26T14:39:43.395Z,99519.81
2023-03-26T14:42:18.866Z,99515.00
2023-03-26T14:45:16.853Z,99518.69
2023-03-26T14:47:49.432Z,99521.56
2023-03-26T14:50:49.089Z,99510.78
2023-03-26T14:53:25.876Z,99515.19
2023-03-26T14:56:10.184Z,99516.09
2023-03-26T14:59:08.500Z,99515.06
2023-03-26T15:02:09.727Z,99516.94
2023-03-26T15:05:12.848Z,99519.34
2023-03-26T15:08:01.470Z,99515.06
2023-03-26T15:11:01.221Z,99516.44
2023-03-26T15:13:51.415Z,99518.16
2023-03-26T15:16:43.303Z,99520.97
2023-03-26T15:19:40.320Z,99520.38
2023-03-26T15:22:48.372Z,99521.78
2023-03-26T15:25:42.381Z,99518.56
2023-03-26T15:28:57.870Z,99526.00
2023-03-26T15:31:41.779Z,99524.75
2023-03-26T15:34:16.538Z,99523.28
2023-03-26T15:37:24.353Z,99521.09
2023-03-26T15:40:00.530Z,99529.41
2023-03-26T15:42:38.302Z,99530.84
2023-03-26T15:45:29.508Z,99539.34
2023-03-26T15:48:13.889Z,99533.50
2023-03-26T15:50:51.498Z,99531.34
2023-03-26T15:53:28.724Z,99540.38
2023-03-26T15:56:07.707Z,99539.66
2023-03-26T15:58:45.847Z,99538.38
2023-03-26T16:01:21.527Z,99540.69
2023-03-26T16:03:57.797Z,99545.03
2023-03-26T16:06:30.498Z,99545.00
2023-03-26T16:09:24.036Z,99540.56
2023-03-26T16:11:53.848Z,99542.88
2023-03-26T16:14:24.343Z,99544.13
2023-03-26T16:16:54.325Z,99546.63
2023-03-26T16:19:49.692Z,99543.47
2023-03-26T16:22:42.632Z,99556.19
2023-03-26T16:25:26.937Z,99547.59
2023-03-26T16:28:34.960Z,99558.78
2023-03-26T16:31:36.619Z,99560.72
2023-03-26T16:34:26.552Z,99560.44
2023-03-26T16:36:53.716Z,99563.34
2023-03-26T16:39:24.283Z,99558.09
2023-03-26T16:42:06.242Z,99566.00
2023-03-26T16:44:50.281Z,99568.72
2023-03-26T16:47:24.302Z,99568.59
2023-03-26T16:50:08.458Z,99565.72
2023-03-26T16:52:44.110Z,99571.38
2023-03-26T16:55:21.410Z,99565.81
2023-03-26T16:57:55.002Z,99578.84
2023-03-26T17:00:41.008Z,99579.19
2023-03-26T17:03:27.404Z,99586.81
2023-03-26T17:06:04.236Z,99592.97
2023-03-26T17:08:39.295Z,99587.88
2023-03-26T17:11:18.263Z,99595.22
2023-03-26T17:13:51.223Z,99605.66
2023-03-26T17:16:23.666Z,99609.19
2023-03-26T17:18:58.810Z,99612.59
2023-03-26T17:21:46.015Z,99613.00
2023-03-26T17:24:23.372Z,99614.66
2023-03-26T17:26:59.048Z,99616.19
2023-03-26T17:29:37.777Z,99620.72
2023-03-26T17:32:07.019Z,99625.84
2023-03-26T17:34:41.880Z,99625.34
2023-03-26T17:37:10.752Z,99636.91
2023-03-26T17:40:36.899Z,99642.16
2023-03-26T17:43:09.048Z,99645.44
2023-03-26T17:45:37.090Z,99644.94
2023-03-26T17:48:09.872Z,99647.06
2023-03-26T17:50:41.596Z,99649.97
2023-03-26T17:53:17.176Z,99653.59
2023-03-26T17:55:45.487Z,99660.75
2023-03-26T17:58:23.566Z,99662.38
2023-03-26T18:00:52.895Z,99672.50
2023-03-26T18:03:23.807Z,99676.19
2023-03-26T18:06:05.000Z,99679.13
2023-03-26T18:08:53.724Z,99682.44
2023-03-26T18:11:35.075Z,99687.28
2023-03-26T18:14:24.231Z,99698.28
2023-03-26T18:16:53.066Z,99698.25
2023-03-26T18:19:21.911Z,99699.19
2023-03-26T18:21:51.882Z,99705.59
2023-03-26T18:24:23.447Z,99706.59
2023-03-26T18:26:55.950Z,99713.88
2023-03-26T18:29:24.093Z,99719.56
2023-03-26T18:31:54.810Z,99722.16
2023-03-26T18:34:22.089Z,99724.66
2023-03-26T18:37:05.370Z,99723.22
2023-03-26T18:39:31.732Z,99739.34
2023-03-26T18:41:58.210Z,99737.59
2023-03-26T18:44:24.784Z,99744.88
2023-03-26T18:46:52.652Z,99743.38
2023-03-26T18:49:20.415Z,99744.50
2023-03-26T18:51:56.729Z,99752.50
2023-03-26T18:54:32.617Z,99753.50
2023-03-26T18:57:15.433Z,99759.53
2023-03-26T18:59:43.060Z,99768.41
2023-03-26T19:02:12.775Z,99759.88
2023-03-26T19:04:41.757Z,99771.03
2023-03-26T19:07:14.824Z,99776.69
2023-03-26T19:09:43.256Z,99771.94
2023-03-26T19:12:17.367Z,99781.00
2023-03-26T19:15:02.108Z,99787.22
2023-03-26T19:17:32.699Z,99786.25
2023-03-26T19:19:59.162Z,99792.16
2023-03-26T19:22:26.165Z,99805.72
2023-03-26T19:24:59.029Z,99808.75
2023-03-26T19:27:25.762Z,99802.50
2023-03-26T19:29:52.881Z,99803.25
2023-03-26T19:32:20.864Z,99805.91
2023-03-26T19:34:48.206Z,99814.00
2023-03-26T19:37:20.605Z,99817.44
2023-03-26T19:39:49.825Z,99816.88
2023-03-26T19:42:21.396Z,99826.47
2023-03-26T19:44:47.861Z,99834.03
2023-03-26T19:47:17.346Z,99831.06
2023-03-26T19:49:50.780Z,99835.91
2023-03-26T19:52:21.609Z,99838.88
2023-03-26T19:55:00.429Z,99844.47
2023-03-26T19:57:30.265Z,99852.31
2023-03-26T19:59:56.671Z,99858.78
2023-03-26T20:02:23.170Z,99862.09
2023-03-26T20:04:50.152Z,99865.97
2023-03-26T20:07:18.405Z,99864.34
2023-03-26T20:09:44.934Z,99861.25
2023-03-26T20:12:11.991Z,99872.88
2023-03-26T20:14:39.926Z,99862.78
2023-03-26T20:17:12.755Z,99860.41
2023-03-26T20:19:39.138Z,99870.50
2023-03-26T20:22:07.310Z,99865.31
2023-03-26T20:24:34.493Z,99873.53
2023-03-26T20:27:00.866Z,99874.00
2023-03-26T20:29:27.232Z,99882.16
2023-03-26T20:31:55.155Z,99878.91
2023-03-26T20:34:23.002Z,99882.03
2023-03-26T20:36:50.240Z,99886.06
2023-03-26T20:39:16.927Z,99886.56
2023-03-26T20:41:46.616Z,99895.03
2023-03-26T20:44:14.560Z,99893.66
2023-03-26T20:46:41.707Z,99891.41
2023-03-26T20:49:09.629Z,99897.97
2023-03-26T20:51:36.256Z,99898.88
2023-03-26T20:54:02.615Z,99906.00
2023-03-26T20:56:28.980Z,99910.34
2023-03-26T20:59:09.870Z,99907.59
2023-03-26T21:01:37.593Z,99904.63
2023-03-26T21:04:04.179Z,99912.28
2023-03-26T21:06:31.995Z,99912.81
2023-03-26T21:08:58.893Z,99913.78
2023-03-26T21:11:33.130Z,99921.59
2023-03-26T21:14:06.359Z,99919.53
2023-03-26T21:16:33.702Z,99921.59
2023-03-26T21:19:00.489Z,99930.19
2023-03-26T21:21:45.543Z,99924.88
2023-03-26T21:24:21.298Z,99928.81
2023-03-26T21:26:55.851Z,99938.91
2023-03-26T21:29:22.750Z,99940.31
2023-03-26T21:31:51.063Z,99938.16
2023-03-26T21:34:19.615Z,99956.19
2023-03-26T21:36:48.197Z,99953.28
2023-03-26T21:39:15.376Z,99956.81
2023-03-26T21:41:46.729Z,99961.34
2023-03-26T21:44:13.129Z,99953.09
2023-03-26T21:46:42.008Z,99968.72
2023-03-26T21:49:08.885Z,99978.13
2023-03-26T21:51:36.089Z,99974.84
2023-03-26T21:54:05.409Z,99981.34
2023-03-26T21:56:45.000Z,99989.31
2023-03-26T21:59:19.150Z,99985.84
2023-03-26T22:01:52.972Z,99988.78
2023-03-26T22:04:25.680Z,99988.06
2023-03-26T22:06:57.055Z,99990.97
2023-03-26T22:09:33.852Z,100003.31
2023-03-26T22:12:02.989Z,99991.75
2023-03-26T22:14:29.344Z,100008.66
2023-03-26T22:16:55.714Z,100006.69
2023-03-26T22:19:22.169Z,100024.97
2023-03-26T22:21:48.577Z,100032.72
2023-03-26T22:24:14.929Z,100025.19
2023-03-26T22:26:42.700Z,100030.88
2023-03-26T22:29:09.094Z,100033.41
2023-03-26T22:31:37.851Z,100040.28
2023-03-26T22:34:04.659Z,100038.25
2023-03-26T22:36:31.032Z,100042.44
2023-03-26T22:38:58.267Z,100040.88
2023-03-26T22:41:25.071Z,100051.22
2023-03-26T22:43:54.944Z,100052.50
2023-03-26T22:46:22.315Z,100054.38
2023-03-26T22:48:48.847Z,100063.94
2023-03-26T22:51:15.716Z,100067.75
2023-03-26T22:53:42.090Z,100069.50
2023-03-26T22:56:09.449Z,100075.84
2023-03-26T22:58:35.867Z,100092.16
2023-03-26T23:01:07.945Z,100087.00
2023-03-26T23:03:35.723Z,100090.63
2023-03-26T23:06:04.976Z,100096.63
2023-03-26T23:08:32.648Z,100105.50
2023-03-26T23:10:59.084Z,100103.59
2023-03-26T23:13:26.017Z,100102.16
2023-03-26T23:15:53.634Z,100102.50
2023-03-26T23:18:22.628Z,100115.47
2023-03-26T23:20:49.797Z,100120.16
2023-03-26T23:23:16.129Z,100133.31
2023-03-26T23:25:44.403Z,100135.41
2023-03-26T23:28:10.740Z,100137.06
2023-03-26T23:30:37.096Z,100134.94
2023-03-26T23:33:03.680Z,100136.19
2023-03-26T23:35:31.451Z,100140.94
2023-03-26T23:37:57.797Z,100147.53
2023-03-26T23:40:24.175Z,100144.34
2023-03-26T23:42:50.535Z,100148.22
2023-03-26T23:45:17.570Z,100154.50
2023-03-26T23:47:44.001Z,100168.78
2023-03-26T23:50:10.999Z,100176.19
2023-03-26T23:52:38.687Z,100178.63
2023-03-26T23:55:05.922Z,100182.53
2023-03-26T23:57:32.319Z,100191.84
2023-03-26T23:59:58.681Z,100197.91
